createdAt,value
2018-03-02T00:00:57.874Z,17.97
2018-03-02T00:04:01.929Z,16.33
2018-03-02T00:07:06.774Z,23.52
2018-03-02T00:10:10.066Z,24.90
2018-03-02T00:13:14.126Z,23.58
2018-03-02T00:16:18.254Z,23.77
2018-03-02T00:19:22.295Z,14.67
2018-03-02T00:22:25.582Z,27.10
2018-03-02T00:25:28.902Z,24.43
2018-03-02T00:28:32.920Z,23.73
2018-03-02T00:31:37.654Z,23.50
2018-03-02T00:34:40.923Z,18.60
2018-03-02T00:37:44.206Z,18.97
2018-03-02T00:40:48.250Z,22.77
2018-03-02T00:43:51.529Z,16.67
2018-03-02T00:46:54.805Z,20.17
2018-03-02T00:49:58.879Z,17.33
2018-03-02T00:53:02.161Z,21.97
2018-03-02T00:56:05.430Z,21.27
2018-03-02T00:59:08.723Z,14.10
2018-03-02T01:02:12.026Z,18.48
2018-03-02T01:05:15.426Z,20.50
2018-03-02T01:08:18.836Z,17.73
2018-03-02T01:11:22.298Z,17.23
2018-03-02T01:14:25.650Z,13.52
2018-03-02T01:17:29.742Z,17.87
2018-03-02T01:20:33.050Z,21.47
2018-03-02T01:23:36.337Z,21.43
2018-03-02T01:26:39.603Z,20.47
2018-03-02T01:29:42.900Z,25.30
2018-03-02T01:32:46.244Z,17.37
2018-03-02T01:35:49.534Z,16.30
2018-03-02T01:38:53.095Z,23.73
2018-03-02T01:41:56.459Z,17.27
2018-03-02T01:44:59.733Z,13.77
2018-03-02T01:48:03.005Z,16.77
2018-03-02T01:51:07.045Z,18.67
2018-03-02T01:54:11.181Z,26.60
2018-03-02T01:57:14.453Z,25.67
2018-03-02T02:00:18.466Z,11.50
2018-03-02T02:03:21.750Z,18.30
2018-03-02T02:06:25.803Z,19.23
2018-03-02T02:09:29.089Z,19.20
2018-03-02T02:12:32.356Z,22.53
2018-03-02T02:15:36.453Z,22.67
2018-03-02T02:18:39.730Z,13.83
2018-03-02T02:21:43.769Z,25.03
2018-03-02T02:24:47.060Z,19.70
2018-03-02T02:27:50.329Z,17.07
2018-03-02T02:30:53.611Z,20.90
2018-03-02T02:33:56.903Z,17.70
2018-03-02T02:37:00.169Z,11.20
2018-03-02T02:40:04.543Z,20.70
2018-03-02T02:43:07.813Z,21.87
2018-03-02T02:46:13.104Z,21.47
2018-03-02T02:49:16.396Z,16.83
2018-03-02T02:52:19.677Z,24.47
2018-03-02T02:55:22.989Z,14.70
2018-03-02T02:58:26.261Z,29.97
2018-03-02T03:01:29.568Z,25.70
2018-03-02T03:04:32.853Z,19.67
2018-03-02T03:07:36.124Z,27.17
2018-03-02T03:10:40.225Z,39.33
2018-03-02T03:13:43.513Z,18.73
2018-03-02T03:16:46.783Z,16.30
2018-03-02T03:19:50.071Z,14.03
2018-03-02T03:22:53.341Z,26.17
2018-03-02T03:25:56.618Z,23.67
2018-03-02T03:29:00.665Z,21.63
2018-03-02T03:32:03.941Z,28.17
2018-03-02T03:35:07.219Z,27.13
2018-03-02T03:38:11.262Z,19.05
2018-03-02T03:41:14.562Z,17.25
2018-03-02T03:44:17.943Z,19.70
2018-03-02T03:47:21.978Z,15.40
2018-03-02T03:50:25.266Z,24.45
2018-03-02T03:53:29.304Z,17.17
2018-03-02T03:56:32.679Z,24.50
2018-03-02T03:59:35.976Z,22.67
2018-03-02T04:02:40.033Z,21.20
2018-03-02T04:05:44.105Z,25.87
2018-03-02T04:08:47.442Z,21.57
2018-03-02T04:11:50.717Z,28.00
2018-03-02T04:14:53.996Z,24.00
2018-03-02T04:17:58.042Z,17.92
2018-03-02T04:21:01.325Z,29.17
2018-03-02T04:24:04.592Z,32.07
2018-03-02T04:27:08.645Z,18.50
2018-03-02T04:30:11.941Z,23.67
2018-03-02T04:33:15.214Z,26.40
2018-03-02T04:36:18.500Z,16.40
2018-03-02T04:39:22.557Z,22.27
2018-03-02T04:42:25.820Z,29.95
2018-03-02T04:45:30.095Z,32.20
2018-03-02T04:48:33.480Z,26.87
2018-03-02T04:51:36.762Z,21.23
2018-03-02T04:54:40.065Z,16.07
2018-03-02T04:57:43.361Z,18.95
2018-03-02T05:00:47.342Z,27.00
2018-03-02T05:03:51.378Z,14.80
2018-03-02T05:06:54.784Z,25.30
2018-03-02T05:09:58.074Z,35.53
2018-03-02T05:13:01.355Z,27.80
2018-03-02T05:16:06.453Z,34.67
2018-03-02T05:19:10.478Z,27.93
2018-03-02T05:22:13.769Z,30.87
2018-03-02T05:25:17.162Z,31.17
2018-03-02T05:28:25.849Z,17.98
2018-03-02T05:31:29.775Z,19.00
2018-03-02T05:34:33.191Z,31.08
2018-03-02T05:37:37.509Z,22.43
2018-03-02T05:40:40.909Z,22.73
2018-03-02T05:43:44.210Z,30.17
2018-03-02T05:46:47.488Z,26.07
2018-03-02T05:49:51.577Z,34.63
2018-03-02T05:52:54.849Z,29.00
2018-03-02T05:55:58.136Z,26.43
2018-03-02T05:59:01.453Z,27.95
2018-03-02T06:02:04.750Z,23.62
2018-03-02T06:05:08.104Z,26.87
2018-03-02T06:08:12.199Z,23.27
2018-03-02T06:11:15.513Z,29.93
2018-03-02T06:14:19.552Z,34.23
2018-03-02T06:17:22.845Z,28.03
2018-03-02T06:20:26.135Z,31.00
2018-03-02T06:23:30.184Z,21.60
2018-03-02T06:26:33.516Z,28.87
2018-03-02T06:29:36.800Z,25.33
2018-03-02T06:32:40.120Z,28.93
2018-03-02T06:35:43.421Z,26.60
2018-03-02T06:38:49.448Z,28.08
2018-03-02T06:41:52.722Z,22.88
2018-03-02T06:44:56.014Z,24.10
2018-03-02T06:47:59.292Z,26.10
2018-03-02T06:51:03.342Z,27.80
2018-03-02T06:54:06.633Z,34.40
2018-03-02T06:57:09.928Z,39.43
2018-03-02T07:00:13.257Z,30.30
2018-03-02T07:03:16.529Z,28.30
2018-03-02T07:06:19.805Z,28.87
2018-03-02T07:09:23.091Z,32.22
2018-03-02T07:12:27.926Z,35.87
2018-03-02T07:15:32.554Z,28.23
2018-03-02T07:18:36.583Z,28.87
2018-03-02T07:21:39.863Z,30.77
2018-03-02T07:24:43.905Z,40.10
2018-03-02T07:27:47.275Z,28.77
2018-03-02T07:30:51.321Z,35.20
2018-03-02T07:33:54.596Z,28.00
2018-03-02T07:36:57.876Z,26.73
2018-03-02T07:40:01.956Z,29.13
2018-03-02T07:43:05.262Z,36.67
2018-03-02T07:46:08.567Z,36.75
2018-03-02T07:49:11.847Z,27.67
2018-03-02T07:52:15.117Z,31.20
2018-03-02T07:55:19.662Z,30.20
2018-03-02T07:58:22.961Z,29.07
2018-03-02T08:01:26.934Z,23.30
2018-03-02T08:04:30.977Z,36.23
2018-03-02T08:07:34.262Z,33.13
2018-03-02T08:10:37.644Z,23.97
2018-03-02T08:13:41.672Z,39.67
2018-03-02T08:16:44.958Z,37.63
2018-03-02T08:19:48.987Z,29.55
2018-03-02T08:22:52.277Z,39.03
2018-03-02T08:25:55.577Z,32.20
2018-03-02T08:28:58.858Z,36.30
2018-03-02T08:32:03.081Z,24.40
2018-03-02T08:35:07.199Z,34.30
2018-03-02T08:38:12.233Z,40.10
2018-03-02T08:41:16.286Z,31.87
2018-03-02T08:44:19.560Z,43.63
2018-03-02T08:47:22.870Z,35.83
2018-03-02T08:50:26.246Z,37.95
2018-03-02T08:53:30.306Z,33.83
2018-03-02T08:56:33.601Z,34.53
2018-03-02T08:59:37.688Z,28.15
2018-03-02T09:02:41.717Z,46.93
2018-03-02T09:05:44.998Z,33.00
2018-03-02T09:08:48.288Z,38.57
2018-03-02T09:11:52.837Z,38.75
2018-03-02T09:14:56.661Z,38.13
2018-03-02T09:17:59.948Z,40.00
2018-03-02T09:21:03.276Z,41.25
2018-03-02T09:24:06.563Z,38.77
2018-03-02T09:27:10.638Z,35.73
2018-03-02T09:30:13.929Z,40.17
2018-03-02T09:33:18.004Z,45.53
2018-03-02T09:36:21.357Z,33.13
2018-03-02T09:39:24.637Z,46.17
2018-03-02T09:42:28.741Z,38.38
2018-03-02T09:45:32.784Z,39.42
2018-03-02T09:48:36.082Z,34.65
2018-03-02T09:51:39.470Z,37.97
2018-03-02T09:54:43.508Z,33.37
2018-03-02T09:57:46.785Z,35.17
2018-03-02T10:00:50.100Z,36.83
2018-03-02T10:03:53.785Z,51.00
2018-03-02T10:06:57.821Z,35.87
2018-03-02T10:10:01.101Z,33.88
2018-03-02T10:13:04.596Z,36.07
2018-03-02T10:16:08.637Z,40.17
2018-03-02T10:19:11.915Z,41.13
2018-03-02T10:22:15.182Z,44.53
2018-03-02T10:25:18.493Z,42.97
2018-03-02T10:28:22.534Z,39.47
2018-03-02T10:31:25.853Z,44.10
2018-03-02T10:34:29.120Z,38.40
2018-03-02T10:37:32.682Z,38.90
2018-03-02T10:40:36.596Z,40.03
2018-03-02T10:43:39.900Z,38.53
2018-03-02T10:46:43.192Z,45.43
2018-03-02T10:49:46.468Z,41.00
2018-03-02T10:52:49.733Z,37.70
2018-03-02T10:55:53.029Z,50.10
2018-03-02T10:58:56.297Z,51.43
2018-03-02T11:02:05.797Z,35.20
2018-03-02T11:05:11.047Z,38.17
2018-03-02T11:08:14.327Z,38.33
2018-03-02T11:11:17.620Z,40.00
2018-03-02T11:14:20.938Z,43.80
2018-03-02T11:17:24.234Z,49.10
2018-03-02T11:20:27.656Z,44.00
2018-03-02T11:23:30.924Z,49.88
2018-03-02T11:26:34.201Z,34.17
2018-03-02T11:29:37.477Z,40.40
2018-03-02T11:32:42.061Z,43.67
2018-03-02T11:35:45.332Z,40.30
2018-03-02T11:38:48.757Z,45.90
2018-03-02T11:41:52.045Z,43.80
2018-03-02T11:44:55.313Z,39.17
2018-03-02T11:47:58.641Z,49.97
2018-03-02T11:51:01.909Z,41.85
2018-03-02T11:54:05.177Z,49.87
2018-03-02T11:57:09.221Z,48.30
2018-03-02T12:00:12.493Z,46.43
2018-03-02T12:03:16.543Z,42.23
2018-03-02T12:06:19.980Z,44.47
2018-03-02T12:09:23.268Z,41.80
2018-03-02T12:12:26.569Z,44.10
2018-03-02T12:15:29.838Z,40.53
2018-03-02T12:18:33.123Z,40.20
2018-03-02T12:21:36.418Z,51.30
2018-03-02T12:24:39.807Z,47.10
2018-03-02T12:27:43.930Z,48.57
2018-03-02T12:30:47.210Z,48.83
2018-03-02T12:33:51.259Z,45.60
2018-03-02T12:36:54.629Z,51.37
2018-03-02T12:39:59.917Z,50.07
2018-03-02T12:43:03.225Z,51.07
2018-03-02T12:46:06.589Z,43.97
2018-03-02T12:49:09.919Z,43.03
2018-03-02T12:52:13.989Z,49.80
2018-03-02T12:55:18.028Z,48.67
2018-03-02T12:58:21.437Z,46.47
2018-03-02T13:01:24.720Z,43.10
2018-03-02T13:04:28.110Z,48.90
2018-03-02T13:07:31.418Z,40.95
2018-03-02T13:10:34.716Z,40.85
2018-03-02T13:13:38.198Z,42.93
2018-03-02T13:16:42.320Z,52.10
2018-03-02T13:19:46.399Z,40.93
2018-03-02T13:22:49.685Z,44.70
2018-03-02T13:25:52.966Z,44.80
2018-03-02T13:28:56.251Z,39.47
2018-03-02T13:31:59.523Z,41.77
2018-03-02T13:35:11.643Z,50.43
2018-03-02T13:38:14.929Z,38.77
2018-03-02T13:41:35.864Z,45.17
2018-03-02T13:44:39.232Z,47.90
2018-03-02T13:51:48.030Z,43.57
2018-03-02T13:54:51.318Z,45.17
2018-03-02T13:58:02.553Z,43.60
2018-03-02T14:01:05.816Z,43.53
2018-03-02T14:04:26.882Z,49.27
2018-03-02T14:07:30.155Z,46.17
2018-03-02T14:10:34.209Z,46.43
2018-03-02T14:13:37.509Z,47.70
2018-03-02T14:16:40.859Z,44.90
2018-03-02T14:19:44.929Z,42.17
2018-03-02T14:22:48.302Z,52.03
2018-03-02T14:25:52.352Z,45.53
2018-03-02T14:28:55.625Z,43.90
2018-03-02T14:31:58.910Z,54.03
2018-03-02T14:35:04.217Z,54.97
2018-03-02T14:38:07.481Z,54.40
2018-03-02T14:41:10.811Z,61.03
2018-03-02T14:44:14.075Z,57.07
2018-03-02T14:47:17.384Z,51.28
2018-03-02T14:50:20.670Z,52.60
2018-03-02T14:53:24.075Z,53.07
2018-03-02T14:56:27.561Z,50.10
2018-03-02T14:59:30.912Z,46.08
2018-03-02T15:02:35.789Z,43.58
2018-03-02T15:05:39.828Z,45.03
2018-03-02T15:08:43.138Z,47.37
2018-03-02T15:11:46.396Z,49.10
2018-03-02T15:14:49.729Z,44.67
2018-03-02T15:17:53.046Z,43.97
2018-03-02T15:20:56.302Z,42.87
2018-03-02T15:23:59.584Z,48.50
2018-03-02T15:27:02.877Z,51.72
2018-03-02T15:30:06.171Z,51.00
2018-03-02T15:33:10.191Z,46.40
2018-03-02T15:36:13.509Z,57.57
2018-03-02T15:39:16.830Z,48.47
2018-03-02T15:42:20.100Z,49.00
2018-03-02T15:45:23.814Z,47.10
2018-03-02T15:48:27.760Z,40.03
2018-03-02T15:51:31.850Z,48.63
2018-03-02T15:54:35.132Z,46.07
2018-03-02T15:57:38.433Z,48.80
2018-03-02T16:00:43.445Z,41.22
2018-03-02T16:03:47.494Z,43.47
2018-03-02T16:06:50.865Z,52.30
2018-03-02T16:09:54.953Z,49.30
2018-03-02T16:12:58.257Z,50.27
2018-03-02T16:16:02.310Z,54.43
2018-03-02T16:19:05.626Z,51.33
2018-03-02T16:22:08.908Z,48.17
2018-03-02T16:25:12.210Z,65.12
2018-03-02T16:28:15.512Z,50.53
2018-03-02T16:31:18.821Z,50.70
2018-03-02T16:34:22.121Z,59.90
2018-03-02T16:37:25.405Z,51.63
2018-03-02T16:40:28.690Z,49.37
2018-03-02T16:43:32.085Z,52.40
2018-03-02T16:46:35.459Z,55.40
2018-03-02T16:49:39.364Z,55.33
2018-03-02T16:52:42.631Z,52.47
2018-03-02T16:55:45.920Z,49.47
2018-03-02T16:58:49.208Z,58.93
2018-03-02T17:01:52.493Z,54.43
2018-03-02T17:04:55.761Z,50.12
2018-03-02T17:07:59.804Z,54.33
2018-03-02T17:11:03.168Z,53.30
2018-03-02T17:14:06.427Z,46.93
2018-03-02T17:17:11.132Z,53.33
2018-03-02T17:20:14.407Z,52.10
2018-03-02T17:23:19.126Z,51.83
2018-03-02T17:26:22.702Z,55.92
2018-03-02T17:29:26.928Z,55.87
2018-03-02T17:32:30.197Z,65.03
2018-03-02T17:35:33.498Z,55.77
2018-03-02T17:38:36.770Z,63.53
2018-03-02T17:41:41.322Z,57.30
2018-03-02T17:44:44.605Z,55.67
2018-03-02T17:47:47.882Z,56.97
2018-03-02T17:50:52.772Z,52.13
2018-03-02T17:53:57.109Z,57.90
2018-03-02T17:57:00.394Z,57.83
2018-03-02T18:00:04.561Z,55.50
2018-03-02T18:03:07.850Z,61.53
2018-03-02T18:06:13.853Z,48.94
2018-03-02T18:09:17.155Z,60.42
2018-03-02T18:12:21.198Z,49.08
2018-03-02T18:15:24.501Z,62.43
2018-03-02T18:18:27.798Z,59.67
2018-03-02T18:21:31.088Z,61.97
2018-03-02T18:24:34.438Z,51.97
2018-03-02T18:27:37.667Z,56.67
2018-03-02T18:30:42.371Z,64.43
2018-03-02T18:33:45.744Z,63.53
2018-03-02T18:36:49.790Z,65.10
2018-03-02T18:39:53.086Z,56.05
2018-03-02T18:42:56.365Z,56.63
2018-03-02T18:45:59.636Z,61.37
2018-03-02T18:49:03.718Z,66.25
2018-03-02T18:52:07.003Z,64.40
2018-03-02T18:55:10.330Z,59.97
2018-03-02T18:58:13.681Z,68.07
2018-03-02T19:01:16.988Z,57.90
2018-03-02T19:04:20.333Z,66.60
2018-03-02T19:07:25.168Z,59.53
2018-03-02T19:10:29.422Z,51.80
2018-03-02T19:13:32.707Z,64.80
2018-03-02T19:16:36.750Z,70.30
2018-03-02T19:19:40.063Z,59.70
2018-03-02T19:22:44.112Z,57.75
2018-03-02T19:25:47.389Z,61.07
2018-03-02T19:28:50.666Z,63.23
2018-03-02T19:31:53.929Z,68.20
2018-03-02T19:34:57.982Z,65.63
2018-03-02T19:38:01.293Z,55.47
2018-03-02T19:41:04.636Z,70.45
2018-03-02T19:44:08.008Z,67.85
2018-03-02T19:47:11.553Z,74.80
2018-03-02T19:50:15.588Z,72.27
2018-03-02T19:53:18.877Z,62.40
2018-03-02T19:56:22.166Z,80.80
2018-03-02T19:59:25.945Z,67.37
2018-03-02T20:02:29.215Z,74.40
2018-03-02T20:05:32.522Z,67.77
2018-03-02T20:08:35.804Z,69.07
2018-03-02T20:11:39.864Z,71.73
2018-03-02T20:14:43.921Z,69.40
2018-03-02T20:17:47.217Z,69.80
2018-03-02T20:20:50.566Z,62.33
2018-03-02T20:23:53.899Z,73.90
2018-03-02T20:26:57.187Z,67.00
2018-03-02T20:30:01.237Z,66.20
2018-03-02T20:33:04.667Z,67.87
2018-03-02T20:36:07.971Z,69.07
2018-03-02T20:39:11.253Z,61.00
2018-03-02T20:42:14.745Z,56.20
2018-03-02T20:45:18.017Z,62.70
2018-03-02T20:48:21.336Z,62.57
2018-03-02T20:51:24.722Z,69.43
2018-03-02T20:54:28.008Z,67.00
2018-03-02T20:57:31.366Z,71.97
2018-03-02T21:00:34.638Z,60.93
2018-03-02T21:03:38.696Z,66.57
2018-03-02T21:06:42.729Z,67.97
2018-03-02T21:09:46.005Z,59.10
2018-03-02T21:12:50.062Z,66.43
2018-03-02T21:15:54.697Z,66.43
2018-03-02T21:18:58.064Z,68.63
2018-03-02T21:22:01.409Z,63.33
2018-03-02T21:25:04.760Z,59.93
2018-03-02T21:28:08.178Z,55.83
2018-03-02T21:31:11.585Z,63.40
2018-03-02T21:34:18.976Z,62.53
2018-03-02T21:37:18.317Z,62.23
2018-03-02T21:40:21.641Z,69.20
2018-03-02T21:43:24.961Z,56.53
2018-03-02T21:46:28.303Z,62.73
2018-03-02T21:49:31.867Z,60.10
2018-03-02T21:52:35.143Z,66.53
2018-03-02T21:55:39.228Z,71.23
2018-03-02T21:58:42.585Z,69.33
2018-03-02T22:01:45.869Z,65.23
2018-03-02T22:04:49.954Z,68.07
2018-03-02T22:07:53.288Z,57.00
2018-03-02T22:10:56.738Z,68.03
2018-03-02T22:14:00.019Z,72.03
2018-03-02T22:17:03.925Z,66.93
2018-03-02T22:20:07.306Z,79.80
2018-03-02T22:23:10.593Z,65.73
2018-03-02T22:26:14.044Z,69.03
2018-03-02T22:29:17.328Z,60.83
2018-03-02T22:32:20.609Z,76.93
2018-03-02T22:35:24.609Z,81.83
2018-03-02T22:38:27.978Z,80.40
2018-03-02T22:41:32.147Z,70.67
2018-03-02T22:44:35.427Z,77.60
2018-03-02T22:47:38.746Z,67.77
2018-03-02T22:50:42.033Z,68.23
2018-03-02T22:53:45.313Z,69.90
2018-03-02T22:56:48.709Z,76.30
2018-03-02T22:59:51.977Z,67.47
2018-03-02T23:03:10.364Z,71.20
2018-03-02T23:06:13.724Z,63.00
2018-03-02T23:09:17.020Z,74.70
2018-03-02T23:12:20.995Z,71.27
2018-03-02T23:15:24.302Z,80.23
2018-03-02T23:18:27.718Z,79.33
2018-03-02T23:21:30.992Z,77.00
2018-03-02T23:24:34.259Z,74.07
2018-03-02T23:27:38.367Z,67.17
2018-03-02T23:30:41.597Z,79.40
2018-03-02T23:33:44.974Z,68.23
2018-03-02T23:36:49.008Z,77.50
2018-03-02T23:39:52.293Z,80.63
2018-03-02T23:42:56.442Z,78.70
2018-03-02T23:45:59.743Z,68.93
2018-03-02T23:49:03.012Z,74.07
2018-03-02T23:52:06.298Z,83.80
2018-03-02T23:55:10.342Z,75.13
2018-03-02T23:58:13.637Z,83.17
